Kirkwall, United Kingdom
Current Conditions -  °F | °C
As of 2:20 PM on Thursday 27 Nov 2014 (Local Time) from EGPA Reporting Station
Rain Showers Rain Showers  
Wind Chill: 45°   Ceiling: 3600
Heat Index: 48°   Visibility: 6mi
Dew Point: 45°   Wind: 8mph
Humidity: 87%   Direction: 140°SE
Pressure: 29.68"   Gusts: NA
Location:  58.98°N, 2.96°W
Report Text: EGPA 271420Z 14007KT 9999 VCSH FEW008 BKN036 09/07 Q1005
Loading
Personal Weather Stations






























Interactive Weather Map New forecast layout! Learn more

10-Day Weather Forecast

Advertisements
Track Severe Weather on mobile